Time;durP1;ratioP1;P1;durP2;ratioP2;P2;SDS_P1;SDS_P2;PMS_P1;PMS_P2;Temp;Humidity;BMP_temperature;BMP_pressure;BME280_temperature;BME280_humidity;BME280_pressure;Samples;Min_cycle;Max_cycle;Signal;HPM_P1;HPM_P2
2021/11/06 00:00:49;;;;;;;98.30;27.13;;;;;;;13.24;95.82;100394.72;5115575;27;20024;-72
2021/11/06 00:03:15;;;;;;;165.23;25.85;;;;;;;12.79;98.39;100382.59;5109855;27;20059;-72
2021/11/06 00:05:40;;;;;;;84.20;25.15;;;;;;;12.92;97.72;100398.09;5111265;27;20043;-72
2021/11/06 00:08:06;;;;;;;723.25;259.92;;;;;;;12.80;99.13;100407.34;5111821;27;20059;-72
2021/11/06 00:10:32;;;;;;;110.60;29.98;;;;;;;12.86;99.50;100400.56;5117907;27;20028;-73
2021/11/06 00:12:57;;;;;;;133.80;25.17;;;;;;;12.81;100.00;100408.16;5114756;27;20047;-73
2021/11/06 00:15:23;;;;;;;60.67;23.73;;;;;;;12.76;100.00;100406.84;5111871;27;20028;-73
2021/11/06 00:17:49;;;;;;;77.22;24.23;;;;;;;12.81;100.00;100414.31;5110429;27;20053;-72
2021/11/06 00:20:15;;;;;;;94.95;23.50;;;;;;;12.82;100.00;100415.16;5103378;28;20321;-73
2021/11/06 00:22:41;;;;;;;105.70;26.30;;;;;;;12.86;100.00;100409.34;5102923;28;20036;-72
2021/11/06 00:25:10;;;;;;;116.65;24.98;;;;;;;12.89;100.00;100421.50;5109782;27;20065;-72
2021/11/06 00:27:35;;;;;;;190.18;22.73;;;;;;;12.91;99.90;100414.19;5103353;28;20036;-73
2021/11/06 00:30:05;;;;;;;100.20;25.27;;;;;;;12.95;98.33;100421.69;5106718;27;20065;-72
2021/11/06 00:32:30;;;;;;;375.02;84.50;;;;;;;12.68;99.26;100414.75;5112987;27;20049;-73
2021/11/06 00:34:56;;;;;;;103.88;28.50;;;;;;;12.58;100.00;100413.22;5113164;27;20059;-72
2021/11/06 00:37:22;;;;;;;98.85;22.23;;;;;;;12.70;100.00;100419.91;5117634;27;20039;-72
2021/11/06 00:39:47;;;;;;;107.47;19.98;;;;;;;12.73;100.00;100420.44;5112677;27;20046;-72
2021/11/06 00:42:13;;;;;;;103.22;21.52;;;;;;;12.76;100.00;100417.47;5105916;28;20256;-72
2021/11/06 00:44:38;;;;;;;63.75;18.48;;;;;;;12.72;100.00;100418.78;5110413;27;20039;-72
2021/11/06 00:47:04;;;;;;;85.90;19.88;;;;;;;12.77;100.00;100402.34;5109368;27;20040;-72
2021/11/06 00:49:29;;;;;;;70.30;19.83;;;;;;;12.91;100.00;100409.72;5112404;27;20226;-72
2021/11/06 00:51:55;;;;;;;126.90;20.33;;;;;;;12.87;99.21;100416.34;5115659;27;20031;-73
2021/11/06 00:54:20;;;;;;;66.78;20.42;;;;;;;12.91;98.93;100419.50;5103036;28;20199;-73
2021/11/06 00:56:46;;;;;;;72.18;21.90;;;;;;;12.98;98.72;100428.50;5100950;28;20049;-73
2021/11/06 00:59:11;;;;;;;95.10;21.48;;;;;;;12.73;99.69;100422.25;5109980;27;20454;-72
2021/11/06 01:01:37;;;;;;;46.20;20.13;;;;;;;12.78;100.00;100420.78;5113136;27;20026;-72
2021/11/06 01:04:04;;;;;;;76.10;19.17;;;;;;;12.70;100.00;100407.47;5117912;27;20026;-73
2021/11/06 01:06:30;;;;;;;86.80;20.50;;;;;;;12.77;100.00;100405.84;5119430;27;20027;-72
2021/11/06 01:08:55;;;;;;;94.45;20.63;;;;;;;12.76;100.00;100404.16;5129410;27;20320;-72
2021/11/06 01:11:21;;;;;;;79.65;20.27;;;;;;;12.62;100.00;100399.47;5143103;27;20086;-72
2021/11/06 01:13:46;;;;;;;116.07;21.02;;;;;;;12.73;100.00;100398.34;5126221;27;20047;-72
2021/11/06 01:16:13;;;;;;;102.68;22.27;;;;;;;12.59;100.00;100404.25;5108472;27;20121;-73
2021/11/06 01:18:38;;;;;;;73.70;20.63;;;;;;;12.45;100.00;100403.84;5107907;27;20044;-72
2021/11/06 01:21:04;;;;;;;100.53;21.60;;;;;;;12.22;100.00;100389.44;5105279;28;20124;-72
2021/11/06 01:23:30;;;;;;;96.07;22.10;;;;;;;12.35;100.00;100383.69;5113695;27;20039;-73
2021/11/06 01:25:55;;;;;;;65.05;21.77;;;;;;;12.39;100.00;100385.03;5110048;27;20058;-73
2021/11/06 01:28:21;;;;;;;99.00;20.88;;;;;;;12.38;100.00;100388.69;5108985;27;20043;-73
2021/11/06 01:30:47;;;;;;;81.88;21.75;;;;;;;12.41;100.00;100399.81;5108286;27;20047;-72
2021/11/06 01:33:12;;;;;;;69.80;22.23;;;;;;;12.24;100.00;100398.06;5111587;27;20302;-72
2021/11/06 01:35:37;;;;;;;67.63;21.77;;;;;;;12.18;100.00;100403.16;5109936;27;20031;-72
2021/11/06 01:38:03;;;;;;;78.22;21.27;;;;;;;12.26;100.00;100395.25;5114899;27;20081;-72
2021/11/06 01:40:28;;;;;;;85.57;22.17;;;;;;;12.43;100.00;100399.66;5114086;27;20035;-72
2021/11/06 01:42:54;;;;;;;85.43;20.08;;;;;;;12.28;100.00;100402.06;5119215;27;20152;-72
2021/11/06 01:45:22;;;;;;;85.85;20.85;;;;;;;12.37;100.00;100416.22;5122041;27;20100;-73
2021/11/06 01:47:48;;;;;;;91.15;23.38;;;;;;;12.27;100.00;100415.50;5111173;28;20039;-72
2021/11/06 01:50:15;;;;;;;66.63;23.20;;;;;;;12.34;100.00;100408.59;5103818;28;20039;-72
2021/11/06 01:52:40;;;;;;;109.55;23.52;;;;;;;12.30;100.00;100417.84;5120889;27;20066;-72
2021/11/06 01:55:06;;;;;;;120.78;26.15;;;;;;;12.22;100.00;100417.81;5121241;28;20321;-72
2021/11/06 01:57:33;;;;;;;101.03;25.83;;;;;;;12.13;100.00;100423.06;5111141;27;20082;-72
2021/11/06 01:59:59;;;;;;;116.03;27.98;;;;;;;12.03;100.00;100414.34;5104900;28;20111;-72
2021/11/06 02:02:26;;;;;;;97.55;25.92;;;;;;;12.12;100.00;100407.28;5119479;27;20027;-72
2021/11/06 02:04:52;;;;;;;85.15;24.83;;;;;;;12.14;100.00;100426.53;5109958;27;20027;-72
2021/11/06 02:07:17;;;;;;;84.30;24.75;;;;;;;12.19;100.00;100431.38;5109616;27;20074;-72
2021/11/06 02:09:43;;;;;;;70.68;24.70;;;;;;;12.14;100.00;100435.34;5116856;27;20091;-72
2021/11/06 02:12:09;;;;;;;94.97;26.73;;;;;;;12.04;100.00;100431.94;5115261;27;20606;-71
2021/11/06 02:14:36;;;;;;;106.85;27.42;;;;;;;12.03;100.00;100432.94;5109983;28;20134;-73
2021/11/06 02:17:01;;;;;;;112.50;28.45;;;;;;;12.10;100.00;100428.69;5110725;28;20050;-72
2021/11/06 02:19:28;;;;;;;86.20;28.40;;;;;;;12.26;100.00;100421.81;5115685;27;20313;-72
2021/11/06 02:21:56;;;;;;;100.55;25.90;;;;;;;12.25;100.00;100423.63;5115724;28;20374;-72
2021/11/06 02:24:21;;;;;;;104.03;27.38;;;;;;;12.53;100.00;100423.50;5121268;28;20031;-72
2021/11/06 02:26:47;;;;;;;87.78;25.63;;;;;;;12.32;100.00;100429.97;5114632;28;20360;-72
2021/11/06 02:29:13;;;;;;;120.03;25.50;;;;;;;12.33;100.00;100439.63;5114475;28;20349;-72
2021/11/06 02:31:39;;;;;;;76.05;21.98;;;;;;;12.27;100.00;100437.59;5118287;28;20020;-72
2021/11/06 02:34:06;;;;;;;50.35;23.17;;;;;;;12.26;100.00;100421.81;5107357;28;20062;-73
2021/11/06 02:36:31;;;;;;;71.85;25.38;;;;;;;12.24;100.00;100437.06;5119591;28;20344;-72
2021/11/06 02:38:57;;;;;;;74.05;26.20;;;;;;;11.89;100.00;100430.00;5112514;28;20032;-72
2021/11/06 02:41:23;;;;;;;110.50;25.95;;;;;;;11.87;100.00;100430.16;5113573;28;20096;-73
2021/11/06 02:43:49;;;;;;;89.97;26.75;;;;;;;12.05;100.00;100438.09;5115582;27;20119;-72
2021/11/06 02:46:14;;;;;;;108.70;24.23;;;;;;;12.12;100.00;100441.78;5118665;28;20360;-72
2021/11/06 02:48:40;;;;;;;87.75;25.50;;;;;;;12.03;100.00;100440.91;5107496;28;20214;-73
2021/11/06 02:51:06;;;;;;;74.50;23.77;;;;;;;12.15;100.00;100436.19;5107736;28;20112;-72
2021/11/06 02:53:31;;;;;;;77.55;25.27;;;;;;;12.26;99.46;100437.75;5110057;28;20109;-72
2021/11/06 02:55:56;;;;;;;45.30;20.50;;;;;;;12.20;100.00;100435.72;5115729;28;20264;-72
2021/11/06 02:58:22;;;;;;;39.78;20.88;;;;;;;12.36;99.82;100434.00;5122845;28;20036;-72
2021/11/06 03:00:47;;;;;;;70.03;20.33;;;;;;;12.61;95.58;100431.50;5109996;28;20043;-72
2021/11/06 03:03:13;;;;;;;57.25;18.90;;;;;;;12.40;95.95;100432.69;5113478;28;20047;-72
2021/11/06 03:05:38;;;;;;;87.15;19.10;;;;;;;12.33;96.79;100436.97;5111547;27;20261;-72
2021/11/06 03:08:04;;;;;;;112.20;28.80;;;;;;;12.32;97.39;100445.09;5109759;28;20127;-72
2021/11/06 03:10:30;;;;;;;94.18;29.40;;;;;;;12.11;98.89;100450.75;5112198;27;20046;-72
2021/11/06 03:12:56;;;;;;;66.57;22.17;;;;;;;12.30;98.57;100455.03;5113492;28;20035;-72
2021/11/06 03:15:22;;;;;;;258.83;71.25;;;;;;;12.26;98.39;100445.72;5118391;27;20240;-72
2021/11/06 03:17:47;;;;;;;72.57;23.92;;;;;;;12.36;97.24;100449.94;5124864;28;20042;-72
2021/11/06 03:20:14;;;;;;;71.50;22.83;;;;;;;12.50;95.63;100453.84;5122748;27;20103;-72
2021/11/06 03:22:40;;;;;;;59.88;19.90;;;;;;;12.44;93.64;100457.09;5122933;27;20321;-72
2021/11/06 03:25:07;;;;;;;57.15;18.50;;;;;;;12.21;95.60;100459.44;5126133;27;20045;-72
2021/11/06 03:27:33;;;;;;;59.05;19.67;;;;;;;12.09;96.88;100464.19;5124278;28;20028;-72
2021/11/06 03:29:59;;;;;;;52.85;18.58;;;;;;;12.03;97.93;100463.97;5118747;27;20038;-72
2021/11/06 03:32:25;;;;;;;67.25;18.67;;;;;;;12.12;97.68;100471.00;5116775;27;20035;-72
2021/11/06 03:34:50;;;;;;;77.25;17.85;;;;;;;12.15;97.06;100465.38;5113873;27;20048;-71
2021/11/06 03:37:16;;;;;;;55.38;19.10;;;;;;;12.18;96.14;100454.44;5107502;28;20043;-72
2021/11/06 03:39:41;;;;;;;128.13;21.33;;;;;;;12.20;94.96;100463.09;5103407;28;20031;-72
2021/11/06 03:42:07;;;;;;;105.80;19.77;;;;;;;11.98;96.28;100464.41;5110875;27;20035;-72
2021/11/06 03:44:34;;;;;;;85.05;19.88;;;;;;;11.89;97.44;100472.47;5104987;28;20415;-72
2021/11/06 03:47:01;;;;;;;144.95;20.17;;;;;;;11.87;96.72;100469.97;5103352;28;20032;-72
2021/11/06 03:49:26;;;;;;;96.45;19.35;;;;;;;11.80;99.04;100483.00;5104281;28;20073;-72
2021/11/06 03:51:52;;;;;;;112.85;20.27;;;;;;;11.86;98.65;100476.25;5104773;28;20044;-71
2021/11/06 03:54:18;;;;;;;116.03;21.42;;;;;;;11.98;97.43;100479.50;5109753;27;20027;-72
2021/11/06 03:56:43;;;;;;;96.38;19.65;;;;;;;11.75;97.33;100471.97;5105107;28;20047;-72
2021/11/06 03:59:09;;;;;;;80.78;18.73;;;;;;;11.65;97.75;100494.25;5115474;27;20039;-72
2021/11/06 04:01:35;;;;;;;79.25;18.92;;;;;;;11.54;100.00;100503.28;5115989;27;20183;-72
2021/11/06 04:04:02;;;;;;;67.93;18.00;;;;;;;11.51;99.88;100500.91;5110847;27;20043;-72
2021/11/06 04:06:32;;;;;;;103.40;19.65;;;;;;;11.71;98.26;100499.81;5111189;27;20039;-71
2021/11/06 04:08:57;;;;;;;88.20;18.63;;;;;;;11.51;98.94;100506.22;5109507;27;20034;-72
2021/11/06 04:11:23;;;;;;;70.07;18.63;;;;;;;11.49;98.40;100494.94;5103431;28;20032;-72
2021/11/06 04:13:49;;;;;;;79.30;19.85;;;;;;;11.30;99.08;100495.03;5108542;27;20038;-72
2021/11/06 04:16:15;;;;;;;58.45;17.70;;;;;;;11.00;100.00;100481.09;5122322;27;20186;-72
2021/11/06 04:18:41;;;;;;;65.18;18.58;;;;;;;10.75;100.00;100479.94;5109098;27;20036;-72
2021/11/06 04:21:06;;;;;;;82.68;20.25;;;;;;;10.44;100.00;100463.44;5119561;27;20096;-72
2021/11/06 04:23:32;;;;;;;84.55;21.30;;;;;;;10.32;100.00;100464.56;5118428;27;20036;-72
2021/11/06 04:25:58;;;;;;;79.22;19.52;;;;;;;10.15;100.00;100471.41;5112411;27;20386;-72
2021/11/06 04:28:23;;;;;;;86.50;18.70;;;;;;;10.19;100.00;100496.59;5114579;27;20046;-72
2021/11/06 04:30:49;;;;;;;71.70;20.90;;;;;;;10.27;100.00;100498.56;5110142;27;20271;-72
2021/11/06 04:33:15;;;;;;;65.72;21.65;;;;;;;10.50;100.00;100499.94;5114082;27;20268;-71
2021/11/06 04:35:41;;;;;;;60.70;22.27;;;;;;;10.76;100.00;100501.97;5117397;27;20042;-71
2021/11/06 04:38:06;;;;;;;82.78;20.83;;;;;;;10.79;100.00;100509.63;5113266;27;20270;-72
2021/11/06 04:40:31;;;;;;;60.70;21.30;;;;;;;11.14;100.00;100496.50;5118688;27;20039;-72
2021/11/06 04:42:57;;;;;;;73.70;18.55;;;;;;;11.22;100.00;100494.94;5112057;27;20036;-72
2021/11/06 04:45:23;;;;;;;53.70;16.98;;;;;;;11.34;100.00;100497.22;5114733;27;20057;-72
2021/11/06 04:47:48;;;;;;;107.05;18.90;;;;;;;11.44;100.00;100500.69;5117667;28;20063;-72
2021/11/06 04:50:14;;;;;;;70.22;16.35;;;;;;;11.62;99.34;100484.78;5122554;28;20039;-72
2021/11/06 04:52:40;;;;;;;82.65;15.55;;;;;;;11.67;97.19;100498.44;5121888;27;20337;-72
2021/11/06 04:55:09;;;;;;;69.85;16.45;;;;;;;11.60;96.64;100504.50;5114285;27;20108;-72
2021/11/06 04:57:35;;;;;;;64.57;15.35;;;;;;;11.17;99.63;100511.28;5115960;27;20055;-71
2021/11/06 05:00:00;;;;;;;66.93;16.27;;;;;;;11.27;99.10;100511.22;5108414;27;20111;-72
2021/11/06 05:02:26;;;;;;;86.85;18.00;;;;;;;11.24;98.07;100520.31;5104764;28;20050;-72
2021/11/06 05:04:51;;;;;;;54.78;18.00;;;;;;;11.08;100.00;100520.94;5108658;27;20036;-71
2021/11/06 05:07:17;;;;;;;73.85;19.75;;;;;;;10.80;100.00;100528.03;5113066;27;20027;-71
2021/11/06 05:09:43;;;;;;;105.00;19.70;;;;;;;10.93;100.00;100530.34;5121688;27;20020;-72
2021/11/06 05:12:09;;;;;;;76.05;19.35;;;;;;;10.90;100.00;100529.81;5104450;27;20195;-72
2021/11/06 05:14:35;;;;;;;84.10;19.42;;;;;;;11.04;100.00;100521.38;5110458;27;20028;-72
2021/11/06 05:17:01;;;;;;;141.00;17.75;;;;;;;10.94;100.00;100524.06;5107720;27;20050;-72
2021/11/06 05:19:27;;;;;;;220.30;19.20;;;;;;;10.93;100.00;100527.69;5108268;27;20282;-72
2021/11/06 05:21:52;;;;;;;91.25;16.98;;;;;;;10.78;100.00;100519.38;5119007;27;20046;-72
2021/11/06 05:24:18;;;;;;;85.95;15.02;;;;;;;10.31;100.00;100529.06;5119963;27;20047;-72
2021/11/06 05:26:43;;;;;;;75.18;14.10;;;;;;;10.00;100.00;100538.94;5118065;28;20048;-72
2021/11/06 05:29:09;;;;;;;66.65;15.00;;;;;;;9.96;100.00;100547.31;5123002;28;20047;-71
2021/11/06 05:31:36;;;;;;;84.32;16.95;;;;;;;9.92;100.00;100541.44;5123052;28;20225;-71
2021/11/06 05:34:03;;;;;;;97.18;17.30;;;;;;;9.98;100.00;100548.84;5122706;28;20049;-72
2021/11/06 05:36:28;;;;;;;56.63;17.73;;;;;;;9.79;100.00;100549.66;5122920;28;20036;-72
2021/11/06 05:38:55;;;;;;;69.50;18.25;;;;;;;10.03;100.00;100564.28;5121835;28;20035;-72
2021/11/06 05:41:20;;;;;;;52.85;16.10;;;;;;;10.16;100.00;100557.75;5122726;28;20043;-72
2021/11/06 05:43:46;;;;;;;66.57;18.10;;;;;;;10.11;100.00;100559.97;5123256;28;20117;-72
2021/11/06 05:46:12;;;;;;;60.65;19.02;;;;;;;10.41;100.00;100577.59;5122978;28;20251;-72
2021/11/06 05:48:38;;;;;;;72.15;15.65;;;;;;;10.61;100.00;100581.03;5122961;28;20066;-72
2021/11/06 05:51:03;;;;;;;65.05;13.63;;;;;;;10.64;100.00;100593.16;5122859;28;20046;-72
2021/11/06 05:53:29;;;;;;;29.30;12.65;;;;;;;10.82;100.00;100600.25;5122829;28;20186;-71
2021/11/06 05:55:54;;;;;;;123.93;32.80;;;;;;;11.07;100.00;100605.91;5122726;28;20077;-72
2021/11/06 05:58:20;;;;;;;90.38;26.50;;;;;;;11.26;100.00;100608.47;5122516;28;20329;-72
2021/11/06 06:00:46;;;;;;;42.08;13.23;;;;;;;11.52;98.70;100598.91;5122688;28;20035;-72
2021/11/06 06:03:11;;;;;;;45.10;13.02;;;;;;;11.55;98.47;100588.97;5122796;28;20039;-71
2021/11/06 06:05:37;;;;;;;20.65;9.88;;;;;;;11.25;99.90;100585.59;5122412;28;20028;-71
2021/11/06 06:08:02;;;;;;;36.67;10.80;;;;;;;11.22;100.00;100604.44;5122405;28;20028;-72
2021/11/06 06:10:28;;;;;;;25.67;11.50;;;;;;;11.13;100.00;100614.09;5122286;28;20210;-72
2021/11/06 06:12:53;;;;;;;35.38;13.95;;;;;;;11.12;100.00;100619.56;5118536;28;20074;-72
2021/11/06 06:15:20;;;;;;;19.95;13.38;;;;;;;11.18;100.00;100622.47;5118962;27;20039;-72
2021/11/06 06:17:47;;;;;;;65.35;22.55;;;;;;;11.40;100.00;100615.97;5099773;28;20046;-72
2021/11/06 06:20:12;;;;;;;106.30;34.33;;;;;;;11.57;100.00;100624.16;5100592;28;20068;-72
2021/11/06 06:22:38;;;;;;;117.85;38.22;;;;;;;11.79;99.82;100635.25;5108195;28;20329;-70
2021/11/06 06:25:05;;;;;;;121.90;43.50;;;;;;;11.92;100.00;100647.31;5103020;28;20036;-71
2021/11/06 06:27:30;;;;;;;92.63;34.05;;;;;;;12.00;99.49;100650.06;5101007;28;20379;-71
2021/11/06 06:29:56;;;;;;;49.85;20.38;;;;;;;12.05;100.00;100653.09;5103800;28;20047;-71
2021/11/06 06:32:21;;;;;;;29.23;16.88;;;;;;;12.15;98.33;100643.25;5121821;28;20031;-71
2021/11/06 06:34:47;;;;;;;32.92;13.60;;;;;;;12.37;97.52;100641.97;5121548;28;20031;-71
2021/11/06 06:37:13;;;;;;;19.63;13.23;;;;;;;12.49;96.61;100647.94;5113613;28;20047;-72
2021/11/06 06:39:38;;;;;;;21.25;12.27;;;;;;;12.52;96.07;100631.69;5117200;28;20034;-72
2021/11/06 06:42:04;;;;;;;23.85;14.38;;;;;;;12.58;95.66;100636.38;5104390;28;20248;-72
2021/11/06 06:44:29;;;;;;;18.55;12.93;;;;;;;12.64;96.14;100635.78;5107199;28;20262;-71
2021/11/06 06:46:55;;;;;;;30.13;14.95;;;;;;;12.70;95.76;100636.00;5111439;28;20024;-72
2021/11/06 06:49:20;;;;;;;26.75;15.15;;;;;;;12.82;94.93;100643.72;5111442;27;20027;-71
2021/11/06 06:51:46;;;;;;;29.88;14.30;;;;;;;12.88;94.97;100645.75;5116548;27;20040;-72
2021/11/06 06:54:11;;;;;;;21.75;13.05;;;;;;;12.92;94.40;100639.97;5113984;27;20035;-71
2021/11/06 06:56:37;;;;;;;28.27;13.73;;;;;;;13.08;93.93;100649.88;5109879;28;20237;-71
2021/11/06 06:59:03;;;;;;;21.55;14.13;;;;;;;13.20;92.90;100658.47;5112488;27;20247;-71
2021/11/06 07:01:28;;;;;;;20.60;12.43;;;;;;;13.27;93.36;100662.16;5120459;27;20027;-71
2021/11/06 07:03:54;;;;;;;16.48;11.57;;;;;;;13.33;92.02;100662.38;5112117;27;20036;-71
2021/11/06 07:06:19;;;;;;;20.58;13.73;;;;;;;13.48;91.09;100667.94;5117762;27;20072;-71
2021/11/06 07:08:45;;;;;;;25.88;14.25;;;;;;;13.10;94.27;100677.16;5106720;28;20040;-72
2021/11/06 07:11:10;;;;;;;37.05;23.83;;;;;;;13.21;94.89;100673.44;5122764;27;20024;-72
2021/11/06 07:13:37;;;;;;;51.35;31.45;;;;;;;13.22;94.96;100680.41;5106495;28;20085;-72
2021/11/06 07:16:04;;;;;;;50.83;32.85;;;;;;;12.89;95.70;100676.66;5111959;27;20031;-72
2021/11/06 07:18:29;;;;;;;73.80;52.70;;;;;;;13.19;95.55;100680.72;5111981;27;20233;-71
2021/11/06 07:20:54;;;;;;;33.55;22.23;;;;;;;13.38;94.70;100680.53;5115549;27;20308;-72
2021/11/06 07:23:20;;;;;;;46.58;25.45;;;;;;;13.35;94.19;100665.72;5112654;27;20040;-72
2021/11/06 07:25:45;;;;;;;72.97;29.65;;;;;;;13.30;95.19;100672.50;5121646;27;20035;-71
2021/11/06 07:28:11;;;;;;;33.70;19.48;;;;;;;13.40;94.15;100676.72;5116794;27;20042;-71
2021/11/06 07:30:36;;;;;;;89.57;26.65;;;;;;;13.48;93.38;100675.94;5119798;27;20039;-71
2021/11/06 07:33:02;;;;;;;33.17;18.35;;;;;;;13.69;91.30;100675.56;5107843;27;20154;-72
2021/11/06 07:35:28;;;;;;;45.05;18.48;;;;;;;13.66;90.50;100666.06;5117822;27;20027;-72
2021/11/06 07:37:53;;;;;;;39.63;17.35;;;;;;;13.48;92.08;100670.59;5113699;27;20077;-72
2021/11/06 07:40:19;;;;;;;31.40;16.38;;;;;;;13.52;92.38;100676.44;5114385;27;20256;-72
2021/11/06 07:42:46;;;;;;;34.42;19.00;;;;;;;13.72;92.03;100693.88;5104922;28;20039;-71
2021/11/06 07:45:14;;;;;;;32.33;18.77;;;;;;;13.67;93.02;100696.19;5103537;28;20360;-71
2021/11/06 07:47:40;;;;;;;45.33;21.02;;;;;;;13.74;93.39;100691.88;5110889;27;20024;-72
2021/11/06 07:50:07;;;;;;;45.83;22.10;;;;;;;13.18;96.63;100689.69;5114505;27;20027;-71
2021/11/06 07:52:32;;;;;;;41.45;21.75;;;;;;;12.95;99.46;100679.53;5119427;27;20190;-72
2021/11/06 07:54:58;;;;;;;52.67;22.55;;;;;;;12.99;98.43;100693.34;5117979;27;20032;-72
2021/11/06 07:57:23;;;;;;;46.13;22.88;;;;;;;12.97;99.52;100698.00;5116930;27;20298;-71
2021/11/06 07:59:49;;;;;;;37.75;22.58;;;;;;;13.04;99.65;100697.22;5118460;27;20072;-71
2021/11/06 08:02:14;;;;;;;51.13;25.67;;;;;;;12.85;100.00;100701.88;5120959;27;20039;-72
2021/11/06 08:04:40;;;;;;;41.25;24.38;;;;;;;13.10;99.89;100693.94;5122344;27;20004;-72
2021/11/06 08:07:06;;;;;;;44.83;25.20;;;;;;;13.06;100.00;100694.41;5113176;27;20028;-72
2021/11/06 08:09:31;;;;;;;48.78;27.17;;;;;;;13.15;100.00;100700.63;5114998;27;20018;-71
2021/11/06 08:11:57;;;;;;;45.42;27.08;;;;;;;13.48;98.94;100699.88;5105578;27;20024;-71
2021/11/06 08:14:22;;;;;;;44.15;25.85;;;;;;;13.71;96.61;100701.03;5116958;27;20032;-71
2021/11/06 08:16:50;;;;;;;46.28;25.73;;;;;;;13.61;96.97;100692.31;5125183;27;20035;-72
2021/11/06 08:19:16;;;;;;;43.22;25.35;;;;;;;13.73;96.64;100674.25;5138356;27;20328;-72
2021/11/06 08:21:43;;;;;;;51.08;27.60;;;;;;;14.04;96.86;100683.34;5125269;27;20019;-71
2021/11/06 08:24:08;;;;;;;45.28;28.05;;;;;;;14.25;95.20;100685.56;5137685;27;20034;-72
2021/11/06 08:26:34;;;;;;;49.50;27.52;;;;;;;14.32;94.12;100691.91;5124455;28;20043;-72
2021/11/06 08:29:00;;;;;;;47.05;26.98;;;;;;;14.40;94.23;100685.78;5123665;28;20030;-71
2021/11/06 08:31:25;;;;;;;53.28;29.33;;;;;;;14.64;92.78;100675.19;5135257;27;20321;-71
2021/11/06 08:33:51;;;;;;;53.55;31.45;;;;;;;14.80;91.63;100685.03;5127056;27;20035;-72
2021/11/06 08:36:17;;;;;;;54.55;30.65;;;;;;;15.02;92.04;100691.53;5133005;27;20033;-71
2021/11/06 08:38:43;;;;;;;55.80;34.13;;;;;;;15.28;90.88;100694.84;5144967;27;20339;-72
2021/11/06 08:41:08;;;;;;;57.67;34.00;;;;;;;15.30;89.29;100697.34;5144847;27;20263;-72
2021/11/06 08:43:34;;;;;;;58.35;36.35;;;;;;;15.51;88.03;100686.13;5144314;27;20118;-72
2021/11/06 08:46:01;;;;;;;57.63;35.78;;;;;;;15.91;87.84;100698.56;5143363;27;20030;-72
2021/11/06 08:48:27;;;;;;;56.92;36.63;;;;;;;15.78;89.58;100695.59;5142622;27;20027;-72
2021/11/06 08:50:52;;;;;;;58.88;36.45;;;;;;;15.90;87.98;100708.41;5140457;27;20198;-72
2021/11/06 08:53:18;;;;;;;61.78;40.40;;;;;;;16.02;87.93;100700.00;5144577;27;20073;-72
2021/11/06 08:55:44;;;;;;;61.63;38.10;;;;;;;16.09;87.88;100712.50;5144385;27;20031;-72
2021/11/06 08:58:10;;;;;;;58.33;36.58;;;;;;;16.16;85.19;100704.63;5144289;27;20139;-72
2021/11/06 09:00:40;;;;;;;64.35;37.22;;;;;;;16.34;86.32;100707.03;5142859;27;20023;-71
2021/11/06 09:03:16;;;;;;;61.55;37.08;;;;;;;16.11;86.26;100707.81;5144155;27;20035;-71
2021/11/06 09:05:43;;;;;;;57.38;35.53;;;;;;;16.23;87.01;100698.41;5144273;27;20070;-72
2021/11/06 09:08:09;;;;;;;61.03;36.47;;;;;;;16.22;87.50;100704.75;5143714;27;20027;-72
2021/11/06 09:10:35;;;;;;;63.80;36.92;;;;;;;16.46;85.21;100708.28;5144231;27;20030;-72
2021/11/06 09:13:01;;;;;;;80.15;37.83;;;;;;;16.44;84.81;100696.94;5143931;27;20055;-72
2021/11/06 09:15:26;;;;;;;70.57;46.42;;;;;;;16.35;87.06;100704.16;5142511;27;20071;-72
2021/11/06 09:17:52;;;;;;;56.85;39.38;;;;;;;16.28;86.74;100709.38;5143728;27;20047;-72
2021/11/06 09:20:19;;;;;;;59.83;36.70;;;;;;;16.39;85.67;100696.63;5143950;27;20030;-72
2021/11/06 09:22:45;;;;;;;60.15;34.50;;;;;;;16.67;85.08;100697.84;5123985;27;20047;-72
2021/11/06 09:25:11;;;;;;;57.88;33.70;;;;;;;16.77;83.94;100690.41;5118078;28;20027;-72
2021/11/06 09:27:38;;;;;;;62.63;35.20;;;;;;;16.74;84.04;100679.25;5123677;28;20235;-72
2021/11/06 09:30:07;;;;;;;55.10;33.88;;;;;;;16.76;83.68;100671.88;5123030;28;20237;-72
2021/11/06 09:32:33;;;;;;;57.03;31.17;;;;;;;16.89;84.12;100674.75;5123247;28;20096;-72
2021/11/06 09:34:59;;;;;;;52.28;27.33;;;;;;;17.13;82.92;100682.56;5123142;28;20060;-71
2021/11/06 09:37:25;;;;;;;43.63;26.80;;;;;;;17.09;82.79;100686.63;5122595;28;20032;-72
2021/11/06 09:39:53;;;;;;;49.50;28.27;;;;;;;16.75;85.78;100679.06;5122949;28;20267;-73
2021/11/06 09:42:20;;;;;;;53.38;30.15;;;;;;;16.92;85.24;100682.44;5123060;28;20098;-72
2021/11/06 09:44:45;;;;;;;50.90;30.38;;;;;;;16.87;86.00;100682.97;5122599;28;20039;-72
2021/11/06 09:47:12;;;;;;;54.50;31.58;;;;;;;16.97;86.57;100680.03;5122704;28;20039;-72
2021/11/06 09:49:40;;;;;;;46.63;29.55;;;;;;;17.10;86.10;100679.44;5122892;28;20336;-72
2021/11/06 09:52:07;;;;;;;50.45;27.25;;;;;;;17.30;83.68;100675.22;5122337;28;20043;-72
2021/11/06 09:54:33;;;;;;;49.40;31.05;;;;;;;17.17;84.87;100672.34;5117762;28;20035;-72
2021/11/06 09:56:58;;;;;;;43.53;27.00;;;;;;;17.01;83.91;100667.97;5122430;28;20205;-71
2021/11/06 09:59:26;;;;;;;44.95;25.50;;;;;;;17.33;82.08;100669.50;5121365;28;20073;-71
2021/11/06 10:01:51;;;;;;;43.83;25.17;;;;;;;17.42;82.87;100679.09;5121772;28;20044;-71
2021/11/06 10:04:17;;;;;;;40.03;22.05;;;;;;;17.41;84.03;100663.22;5121637;28;20039;-71
2021/11/06 10:06:46;;;;;;;31.80;19.35;;;;;;;17.53;82.89;100665.25;5121364;28;20032;-70
2021/11/06 10:09:17;;;;;;;37.00;20.77;;;;;;;17.71;82.38;100659.56;5121367;28;20091;-71
2021/11/06 10:11:45;;;;;;;47.53;22.30;;;;;;;17.65;83.06;100649.53;5121731;28;20036;-71
2021/11/06 10:14:18;;;;;;;38.53;22.48;;;;;;;17.84;82.15;100649.03;5120860;28;20042;-71
2021/11/06 10:16:55;;;;;;;40.75;21.30;;;;;;;17.79;82.63;100645.25;5121611;28;20048;-70
2021/11/06 10:19:29;;;;;;;30.15;16.00;;;;;;;17.79;81.73;100651.44;5121144;28;20027;-71
2021/11/06 10:22:17;;;;;;;35.70;16.48;;;;;;;17.85;80.47;100648.00;5121213;28;20031;-71
2021/11/06 10:24:49;;;;;;;30.42;16.17;;;;;;;17.89;80.94;100651.16;5121230;28;20199;-71
2021/11/06 10:27:22;;;;;;;31.83;16.80;;;;;;;18.08;80.88;100647.03;5121018;28;20036;-71
2021/11/06 10:30:15;;;;;;;31.95;15.98;;;;;;;18.21;80.20;100632.97;5121654;28;20032;-71
2021/11/06 10:32:44;;;;;;;28.17;16.42;;;;;;;18.06;81.27;100630.31;5122316;28;20187;-71
2021/11/06 10:35:23;;;;;;;28.20;16.90;;;;;;;18.06;82.26;100631.16;5122285;28;20337;-71
2021/11/06 10:37:56;;;;;;;30.48;15.48;;;;;;;18.35;78.76;100627.53;5121687;28;20284;-70
2021/11/06 10:40:22;;;;;;;31.05;15.85;;;;;;;18.17;78.65;100627.97;5139629;28;20255;-70
2021/11/06 10:42:54;;;;;;;29.58;14.90;;;;;;;18.43;78.51;100621.22;5143073;27;20038;-71
2021/11/06 10:45:22;;;;;;;33.78;16.08;;;;;;;18.39;79.71;100618.09;5142328;27;20046;-71
2021/11/06 10:48:20;;;;;;;27.80;15.23;;;;;;;18.31;81.47;100623.56;5142628;27;20028;-71
2021/11/06 10:50:50;;;;;;;28.02;15.40;;;;;;;18.24;81.46;100614.63;5132037;27;20027;-71
2021/11/06 10:53:40;;;;;;;24.30;13.07;;;;;;;18.25;81.20;100607.44;5142477;27;20075;-71
2021/11/06 10:56:30;;;;;;;22.42;12.98;;;;;;;18.65;77.89;100606.81;5142677;27;20090;-71
2021/11/06 10:59:06;;;;;;;23.60;12.70;;;;;;;18.54;79.93;100607.28;5142121;27;20038;-71
2021/11/06 11:01:35;;;;;;;22.58;12.02;;;;;;;18.52;79.65;100612.03;5142625;27;20425;-70